createdAt,value
2022-12-03T09:13:51.213Z,16.80
2022-12-03T09:14:52.613Z,17.00
2022-12-03T09:15:52.195Z,16.70
2022-12-03T09:16:52.269Z,17.20
2022-12-03T09:17:52.171Z,17.60
2022-12-03T09:18:52.232Z,17.80
2022-12-03T09:19:52.137Z,17.60
2022-12-03T09:20:52.132Z,17.00
2022-12-03T09:21:52.122Z,18.00
2022-12-03T09:22:52.107Z,16.80
2022-12-03T09:23:52.080Z,16.60
2022-12-03T09:24:52.573Z,16.90
2022-12-03T09:25:52.074Z,18.00
2022-12-03T09:26:52.078Z,18.00
2022-12-03T09:27:52.043Z,16.60
2022-12-03T09:28:52.020Z,16.50
2022-12-03T09:29:52.008Z,17.40
2022-12-03T09:30:52.037Z,17.10
2022-12-03T09:31:52.182Z,17.20
2022-12-03T09:32:51.973Z,17.00
2022-12-03T09:33:51.949Z,17.10
2022-12-03T09:34:52.248Z,15.80
2022-12-03T09:35:51.922Z,16.60
2022-12-03T09:36:51.932Z,17.10
2022-12-03T09:37:51.939Z,17.00
2022-12-03T09:38:51.937Z,17.30
2022-12-03T09:39:51.891Z,17.10
2022-12-03T09:40:51.881Z,17.70
2022-12-03T09:41:51.860Z,17.10
2022-12-03T09:42:51.876Z,16.70
2022-12-03T09:44:10.894Z,17.10
2022-12-03T09:44:52.134Z,17.40
2022-12-03T09:45:51.897Z,17.40
2022-12-03T09:46:51.849Z,17.80
2022-12-03T09:47:51.784Z,16.60
2022-12-03T09:48:51.776Z,17.50
2022-12-03T09:49:52.191Z,18.10
2022-12-03T09:50:51.776Z,18.00
2022-12-03T09:51:51.832Z,17.50
2022-12-03T09:52:51.734Z,18.00
2022-12-03T09:53:51.693Z,17.60
2022-12-03T09:54:51.682Z,18.10
2022-12-03T09:55:51.686Z,18.20
2022-12-03T09:56:51.675Z,17.20
2022-12-03T09:57:51.633Z,17.20
2022-12-03T09:58:51.641Z,17.30
2022-12-03T09:59:52.026Z,17.30
2022-12-03T10:00:51.636Z,18.20
2022-12-03T10:01:51.717Z,18.30
2022-12-03T10:02:51.589Z,17.20
2022-12-03T10:03:51.595Z,18.30
2022-12-03T10:04:52.023Z,16.90
2022-12-03T10:05:51.528Z,18.10
2022-12-03T10:06:51.566Z,18.70
2022-12-03T10:07:51.605Z,17.60
2022-12-03T10:08:51.517Z,16.40
2022-12-03T10:09:50.555Z,15.90
2022-12-03T10:10:51.522Z,17.60
2022-12-03T10:11:51.501Z,17.80
2022-12-03T10:12:51.450Z,18.10
2022-12-03T10:13:51.462Z,18.00
2022-12-03T10:14:51.779Z,17.90
2022-12-03T10:15:51.432Z,17.40
2022-12-03T10:16:51.499Z,18.30
2022-12-03T10:17:51.380Z,17.60
2022-12-03T10:18:51.383Z,19.20
2022-12-03T10:19:51.722Z,17.00
2022-12-03T10:20:51.354Z,19.30
2022-12-03T10:21:51.328Z,19.80
2022-12-03T10:22:51.332Z,18.10
2022-12-03T10:23:55.293Z,17.10
2022-12-03T10:24:51.790Z,18.50
2022-12-03T10:25:51.309Z,17.00
2022-12-03T10:26:51.259Z,18.40
2022-12-03T10:27:51.250Z,18.60
2022-12-03T10:28:51.247Z,18.00
2022-12-03T10:29:51.367Z,18.10
2022-12-03T10:30:51.233Z,19.40
2022-12-03T10:31:51.203Z,18.40
2022-12-03T10:32:51.196Z,17.40
2022-12-03T10:33:51.207Z,18.30
2022-12-03T10:34:51.348Z,19.30
2022-12-03T10:35:51.143Z,18.50
2022-12-03T10:36:51.138Z,18.00
2022-12-03T10:37:51.191Z,18.10
2022-12-03T10:38:51.123Z,18.50
2022-12-03T10:39:55.549Z,18.00
2022-12-03T10:40:51.085Z,16.80
2022-12-03T10:41:51.060Z,17.30
2022-12-03T10:42:51.117Z,18.70
2022-12-03T10:43:51.031Z,19.00
2022-12-03T10:44:51.475Z,18.90
2022-12-03T10:45:51.046Z,18.30
2022-12-03T10:46:51.103Z,17.40
2022-12-03T10:47:51.034Z,18.10
2022-12-03T10:48:51.003Z,18.30
2022-12-03T10:49:50.960Z,19.80
2022-12-03T10:50:50.953Z,18.40
2022-12-03T10:51:50.928Z,18.90
2022-12-03T10:52:50.930Z,18.80
2022-12-03T10:53:50.964Z,18.70
2022-12-03T10:54:51.339Z,18.20
2022-12-03T10:55:50.894Z,19.20
2022-12-03T10:56:50.881Z,18.80
2022-12-03T10:57:50.878Z,17.80
2022-12-03T10:58:50.886Z,19.40
2022-12-03T10:59:50.872Z,18.80
2022-12-03T11:00:50.818Z,18.40
2022-12-03T11:01:50.940Z,19.20
2022-12-03T11:02:56.691Z,18.80
2022-12-03T11:03:50.860Z,16.70
2022-12-03T11:04:51.116Z,17.80
2022-12-03T11:05:50.775Z,17.10
2022-12-03T11:06:50.765Z,18.40
2022-12-03T11:07:50.833Z,18.10
2022-12-03T11:08:56.533Z,18.50
2022-12-03T11:09:50.701Z,18.60
2022-12-03T11:10:50.682Z,18.00
2022-12-03T11:11:50.675Z,19.30
2022-12-03T11:12:50.679Z,18.10
2022-12-03T11:13:50.712Z,18.80
2022-12-03T11:14:50.968Z,19.10
2022-12-03T11:15:50.654Z,18.30
2022-12-03T11:16:50.621Z,18.10
2022-12-03T11:17:50.615Z,18.10
2022-12-03T11:18:50.590Z,18.70
2022-12-03T11:19:50.605Z,17.90
2022-12-03T11:20:50.550Z,18.40
2022-12-03T11:21:50.549Z,18.20
2022-12-03T11:22:50.545Z,18.90
2022-12-03T11:23:50.514Z,16.60
2022-12-03T11:24:50.540Z,17.90
2022-12-03T11:25:50.727Z,17.80
2022-12-03T11:26:50.468Z,16.30
2022-12-03T11:27:50.466Z,17.50
2022-12-03T11:28:50.519Z,16.90
2022-12-03T11:29:50.485Z,16.90
2022-12-03T11:30:50.527Z,18.20
2022-12-03T11:31:50.463Z,15.80
2022-12-03T11:32:50.405Z,17.60
2022-12-03T11:33:50.414Z,17.50
2022-12-03T11:34:50.459Z,17.70
2022-12-03T11:35:50.347Z,16.50
2022-12-03T11:37:01.435Z,17.80
2022-12-03T11:37:50.354Z,17.00
2022-12-03T11:38:53.380Z,16.20
2022-12-03T11:39:50.439Z,17.00
2022-12-03T11:40:50.289Z,16.80
2022-12-03T11:41:50.340Z,17.10
2022-12-03T11:42:50.286Z,16.40
2022-12-03T11:43:50.275Z,17.90
2022-12-03T11:44:50.254Z,18.50
2022-12-03T11:45:50.246Z,17.00
2022-12-03T11:46:50.286Z,17.70
2022-12-03T11:47:50.214Z,16.90
2022-12-03T11:48:50.216Z,17.40
2022-12-03T11:49:50.181Z,19.20
2022-12-03T11:50:50.149Z,17.30
2022-12-03T11:51:50.169Z,17.90
2022-12-03T11:52:50.177Z,16.00
2022-12-03T11:53:50.137Z,16.50
2022-12-03T11:54:50.116Z,16.10
2022-12-03T11:55:50.098Z,17.60
2022-12-03T11:57:11.118Z,15.80
2022-12-03T11:57:50.080Z,15.80
2022-12-03T11:59:24.083Z,14.70
2022-12-03T11:59:50.045Z,16.60
2022-12-03T12:00:50.029Z,15.90
2022-12-03T12:01:50.034Z,14.80
2022-12-03T12:02:50.106Z,15.40
2022-12-03T12:03:50.208Z,14.90
2022-12-03T12:04:49.998Z,17.10
2022-12-03T12:05:52.919Z,16.40
2022-12-03T12:06:53.351Z,17.20
2022-12-03T12:07:50.052Z,15.70
2022-12-03T12:08:49.941Z,15.60
2022-12-03T12:09:49.906Z,15.20
2022-12-03T12:10:49.913Z,16.00
2022-12-03T12:11:49.959Z,15.80
2022-12-03T12:12:54.899Z,13.80
2022-12-03T12:13:49.888Z,15.80
2022-12-03T12:14:49.858Z,16.00
2022-12-03T12:15:49.899Z,15.70
2022-12-03T12:16:49.962Z,15.30
2022-12-03T12:17:49.796Z,15.80
2022-12-03T12:18:53.865Z,16.00
2022-12-03T12:19:54.222Z,15.70
2022-12-03T12:20:49.799Z,15.50
2022-12-03T12:21:49.759Z,14.60
2022-12-03T12:22:49.742Z,14.50
2022-12-03T12:23:49.748Z,14.50
2022-12-03T12:24:49.720Z,15.70
2022-12-03T12:25:54.204Z,16.10
2022-12-03T12:26:49.821Z,17.60
2022-12-03T12:27:49.674Z,14.90
2022-12-03T12:28:49.714Z,16.70
2022-12-03T12:29:49.675Z,14.50
2022-12-03T12:30:49.685Z,16.50
2022-12-03T12:31:53.892Z,16.30
2022-12-03T12:32:49.618Z,16.40
2022-12-03T12:34:22.455Z,16.70
2022-12-03T12:34:49.604Z,16.40
2022-12-03T12:35:49.556Z,17.00
2022-12-03T12:36:49.565Z,15.50
2022-12-03T12:37:56.666Z,17.80
2022-12-03T12:38:49.570Z,15.70
2022-12-03T12:45:15.527Z,17.10
2022-12-03T12:48:39.715Z,16.10
2022-12-03T12:49:38.743Z,16.70
2022-12-03T12:50:38.609Z,16.40
2022-12-03T12:51:38.501Z,16.70
2022-12-03T12:52:38.451Z,17.40
2022-12-03T12:53:38.602Z,18.00
2022-12-03T12:55:19.025Z,17.50
2022-12-03T12:55:38.558Z,16.70
2022-12-03T12:56:38.428Z,17.80
2022-12-03T12:57:39.605Z,16.20
2022-12-03T12:58:38.389Z,16.10
2022-12-03T12:59:38.419Z,16.90
2022-12-03T13:00:38.432Z,17.10
2022-12-03T13:01:38.536Z,16.80
2022-12-03T13:03:00.547Z,17.00
2022-12-03T13:03:38.314Z,17.20
2022-12-03T13:04:38.341Z,18.00
2022-12-03T13:05:38.289Z,17.30
2022-12-03T13:06:38.330Z,17.30
2022-12-03T13:07:38.326Z,17.60
2022-12-03T13:08:38.269Z,18.10
2022-12-03T13:09:38.299Z,17.40
2022-12-03T13:11:55.708Z,18.10
2022-12-03T13:12:53.348Z,18.30
2022-12-03T13:13:53.339Z,18.70
2022-12-03T13:14:53.400Z,18.40
2022-12-03T13:15:53.400Z,16.60
2022-12-03T13:16:53.430Z,17.30
2022-12-03T13:24:36.574Z,17.50
2022-12-03T13:25:32.773Z,18.50
2022-12-03T13:26:38.774Z,18.30
2022-12-03T13:27:18.091Z,18.80
2022-12-03T13:29:50.288Z,17.50
2022-12-03T13:30:32.800Z,17.90
2022-12-03T13:31:32.794Z,19.60
2022-12-03T13:33:49.523Z,18.20
2022-12-03T13:34:46.147Z,19.30
2022-12-03T13:36:07.289Z,18.30
2022-12-03T13:36:48.409Z,19.00
2022-12-03T13:37:46.120Z,18.20
2022-12-03T13:38:46.105Z,19.50
2022-12-03T13:40:01.678Z,19.20
2022-12-03T13:40:46.083Z,19.00
2022-12-03T13:42:59.369Z,18.20
2022-12-03T13:44:00.331Z,17.50
2022-12-03T13:45:00.373Z,19.10
2022-12-03T13:46:00.443Z,18.20
2022-12-03T13:47:21.316Z,19.40
2022-12-03T13:48:00.312Z,19.10
2022-12-03T13:50:28.171Z,20.30
2022-12-03T13:51:21.065Z,19.30
2022-12-03T13:56:02.323Z,19.50
2022-12-03T14:17:00.461Z,17.80
2022-12-03T14:22:28.156Z,18.60
2022-12-03T14:23:14.562Z,18.40
2022-12-03T14:24:14.549Z,18.20
2022-12-03T14:25:14.546Z,17.90
2022-12-03T14:26:14.526Z,18.10
2022-12-03T14:40:03.300Z,19.50
2022-12-03T14:41:04.259Z,19.30
2022-12-03T14:42:04.247Z,19.10
2022-12-03T14:43:04.261Z,18.20
2022-12-03T14:44:04.227Z,19.20
2022-12-03T14:45:04.216Z,19.30
2022-12-03T14:46:04.245Z,19.20
2022-12-03T14:47:04.213Z,18.30
2022-12-03T14:48:04.204Z,18.70
2022-12-03T14:49:03.185Z,17.60
2022-12-03T14:50:04.166Z,18.30
2022-12-03T14:51:04.154Z,20.50
2022-12-03T14:52:04.125Z,18.90
2022-12-03T14:53:04.097Z,19.70
2022-12-03T14:54:04.083Z,19.40
2022-12-03T14:55:04.093Z,18.80
2022-12-03T14:56:04.085Z,20.10
2022-12-03T14:57:04.057Z,20.40
2022-12-03T14:58:04.079Z,19.40
2022-12-03T14:59:04.043Z,19.60
2022-12-03T15:00:04.015Z,19.30
2022-12-03T15:01:04.038Z,19.30
2022-12-03T15:02:04.166Z,19.00
2022-12-03T15:03:04.039Z,20.10
2022-12-03T15:04:03.958Z,20.20
2022-12-03T15:05:03.947Z,20.40
2022-12-03T15:06:08.316Z,18.60
2022-12-03T15:07:03.976Z,19.60
2022-12-03T15:08:03.993Z,18.80
2022-12-03T15:09:03.916Z,20.40
2022-12-03T15:10:03.886Z,20.20
2022-12-03T15:11:03.860Z,19.90
2022-12-03T15:12:03.980Z,19.50
2022-12-03T15:13:03.822Z,19.50
2022-12-03T15:14:03.898Z,18.50
2022-12-03T15:15:03.880Z,20.00
2022-12-03T15:16:03.838Z,20.20
2022-12-03T15:17:03.867Z,19.20
2022-12-03T15:18:03.814Z,19.40
2022-12-03T15:19:03.915Z,20.10
2022-12-03T15:20:03.770Z,20.90
2022-12-03T15:21:03.784Z,20.30
2022-12-03T15:22:03.755Z,19.20
2022-12-03T15:23:03.730Z,19.70
2022-12-03T15:24:03.711Z,18.60
2022-12-03T15:25:03.739Z,18.60
2022-12-03T15:26:03.701Z,19.90
2022-12-03T15:27:03.671Z,19.10
2022-12-03T15:28:03.637Z,19.10
2022-12-03T15:29:03.608Z,21.60
2022-12-03T15:30:03.660Z,20.40
2022-12-03T15:31:03.687Z,20.00
2022-12-03T15:32:03.588Z,20.30
2022-12-03T15:33:03.580Z,19.20
2022-12-03T15:34:03.550Z,19.90
2022-12-03T15:35:03.631Z,20.00
2022-12-03T15:36:03.541Z,19.60
2022-12-03T15:37:03.511Z,20.90
2022-12-03T15:38:03.521Z,20.40
2022-12-03T15:39:03.544Z,20.20
2022-12-03T15:40:03.517Z,20.90
2022-12-03T15:41:03.484Z,19.80
2022-12-03T15:42:03.457Z,19.50
2022-12-03T15:43:03.452Z,21.00
2022-12-03T15:44:03.421Z,21.50
2022-12-03T15:45:06.390Z,20.70
2022-12-03T15:46:03.463Z,22.10
2022-12-03T15:47:03.429Z,22.20
2022-12-03T15:48:03.383Z,20.40
2022-12-03T15:49:03.343Z,20.80
2022-12-03T15:50:03.341Z,20.60
2022-12-03T15:51:03.655Z,22.00
2022-12-03T15:52:03.326Z,22.00
2022-12-03T15:53:03.292Z,21.00
2022-12-03T15:54:03.302Z,22.30
2022-12-03T15:55:03.287Z,21.70
2022-12-03T15:56:03.271Z,22.50
2022-12-03T15:57:03.255Z,20.50
2022-12-03T15:58:03.244Z,21.80
2022-12-03T15:59:03.223Z,22.20
2022-12-03T16:00:03.265Z,21.40
2022-12-03T16:01:03.257Z,21.70
2022-12-03T16:02:03.346Z,22.00
2022-12-03T16:03:03.266Z,22.50
2022-12-03T16:04:03.147Z,22.10
2022-12-03T16:05:03.153Z,21.50
2022-12-03T16:06:03.126Z,23.10
2022-12-03T16:07:03.114Z,22.20
2022-12-03T16:08:03.160Z,21.70
2022-12-03T16:09:03.086Z,24.20
2022-12-03T16:10:03.142Z,23.80
2022-12-03T16:11:03.092Z,23.30
2022-12-03T16:12:03.062Z,23.90
2022-12-03T16:13:03.039Z,22.40
2022-12-03T16:14:03.023Z,22.40
2022-12-03T16:15:03.010Z,22.70
2022-12-03T16:16:03.081Z,22.50
2022-12-03T16:17:02.991Z,22.40
2022-12-03T16:18:02.965Z,22.40
2022-12-03T16:19:02.942Z,21.90
2022-12-03T16:20:03.078Z,22.90
2022-12-03T16:21:02.920Z,20.60
2022-12-03T16:22:02.934Z,21.50
2022-12-03T16:23:02.920Z,23.10
2022-12-03T16:24:02.887Z,21.70
2022-12-03T16:25:02.924Z,22.60
2022-12-03T16:26:02.859Z,23.20
2022-12-03T16:27:02.856Z,21.80
2022-12-03T16:28:02.837Z,21.90
2022-12-03T16:29:02.835Z,21.00
2022-12-03T16:30:02.798Z,22.10
2022-12-03T16:31:02.859Z,22.30
2022-12-03T16:32:02.816Z,23.60
2022-12-03T16:33:02.753Z,23.00
2022-12-03T16:34:02.742Z,21.70
2022-12-03T16:35:02.748Z,22.10
2022-12-03T16:36:02.756Z,23.30
2022-12-03T16:37:02.732Z,23.80
2022-12-03T16:38:02.727Z,21.20
2022-12-03T16:39:02.700Z,22.40
2022-12-03T16:40:02.765Z,23.30
2022-12-03T16:41:02.644Z,24.60
2022-12-03T16:42:02.629Z,23.60
2022-12-03T16:43:02.654Z,23.40
2022-12-03T16:44:02.651Z,24.30
2022-12-03T16:45:02.583Z,23.10
2022-12-03T16:46:02.676Z,23.70
2022-12-03T16:47:02.577Z,23.30
2022-12-03T16:48:02.624Z,22.50
2022-12-03T16:49:02.559Z,23.90
2022-12-03T16:50:02.541Z,24.00
2022-12-03T16:51:02.549Z,24.10
2022-12-03T16:52:02.513Z,26.30
2022-12-03T16:53:02.518Z,23.10
2022-12-03T16:54:02.470Z,24.50
2022-12-03T16:55:02.488Z,23.40
2022-12-03T16:56:02.477Z,23.60
2022-12-03T16:57:02.439Z,23.40
2022-12-03T16:58:02.456Z,24.70
2022-12-03T16:59:02.478Z,24.60
2022-12-03T17:00:02.433Z,24.30
2022-12-03T17:01:02.369Z,24.90
2022-12-03T17:02:02.418Z,24.30
2022-12-03T17:03:02.440Z,24.70
2022-12-03T17:04:02.333Z,24.50
2022-12-03T17:05:02.348Z,24.10
2022-12-03T17:06:02.317Z,23.90
2022-12-03T17:07:01.308Z,24.80
2022-12-03T17:08:02.433Z,25.50
2022-12-03T17:09:02.279Z,25.40
2022-12-03T17:10:02.350Z,24.60
2022-12-03T17:11:02.320Z,24.70
2022-12-03T17:12:02.260Z,24.60
2022-12-03T17:13:10.531Z,24.20
2022-12-03T17:14:02.234Z,25.20
2022-12-03T17:15:02.204Z,24.80
2022-12-03T17:16:02.284Z,25.90
2022-12-03T17:17:02.174Z,24.50
2022-12-03T17:18:02.170Z,24.50
2022-12-03T17:19:02.143Z,24.70
2022-12-03T17:20:02.152Z,25.50
2022-12-03T17:21:02.135Z,24.30
2022-12-03T17:22:02.098Z,25.00
2022-12-03T17:23:02.108Z,24.80
2022-12-03T17:24:02.087Z,24.20
2022-12-03T17:25:02.055Z,25.00
2022-12-03T17:26:02.054Z,25.30
2022-12-03T17:27:02.058Z,23.90
2022-12-03T17:28:02.033Z,24.50
2022-12-03T17:29:02.005Z,25.60
2022-12-03T17:30:01.984Z,24.70
2022-12-03T17:31:01.994Z,25.40
2022-12-03T17:32:02.082Z,23.80
2022-12-03T17:33:02.061Z,25.00
2022-12-03T17:34:01.943Z,22.60
2022-12-03T17:35:01.932Z,23.90
2022-12-03T17:36:01.951Z,24.80
2022-12-03T17:37:01.924Z,24.50
2022-12-03T17:38:01.925Z,25.00
2022-12-03T17:39:01.861Z,24.50
2022-12-03T17:40:01.862Z,25.30
2022-12-03T17:41:01.846Z,25.20
2022-12-03T17:42:01.821Z,23.80
2022-12-03T17:43:01.847Z,24.50
2022-12-03T17:44:06.013Z,25.60
2022-12-03T17:45:01.839Z,25.10
2022-12-03T17:46:01.935Z,25.80
2022-12-03T17:47:01.845Z,25.80
2022-12-03T17:48:01.801Z,24.70
2022-12-03T17:49:01.781Z,25.20
2022-12-03T17:50:01.719Z,26.20
2022-12-03T17:51:01.721Z,25.30
2022-12-03T17:52:01.698Z,25.80
2022-12-03T17:53:01.775Z,24.40
2022-12-03T17:54:01.678Z,24.70
2022-12-03T17:55:11.699Z,23.70
2022-12-03T17:56:01.663Z,26.00
2022-12-03T17:57:01.612Z,25.50
2022-12-03T17:58:01.619Z,24.50
2022-12-03T17:59:01.614Z,24.10
2022-12-03T18:00:01.592Z,21.90
2022-12-03T18:01:03.118Z,23.90
2022-12-03T18:02:01.740Z,24.60
2022-12-03T18:03:01.552Z,26.00
2022-12-03T18:04:01.606Z,25.80
2022-12-03T18:05:01.538Z,25.30
2022-12-03T18:06:01.504Z,26.10
2022-12-03T18:07:02.660Z,25.20
2022-12-03T18:08:01.528Z,24.20
2022-12-03T18:09:01.473Z,26.00
2022-12-03T18:10:01.456Z,25.20
2022-12-03T18:11:01.444Z,24.40
2022-12-03T18:12:01.420Z,25.20
2022-12-03T18:13:02.225Z,25.40
2022-12-03T18:14:01.461Z,24.50
2022-12-03T18:15:01.363Z,23.60
2022-12-03T18:16:01.458Z,24.00
2022-12-03T18:17:01.359Z,26.30
2022-12-03T18:18:01.354Z,24.70
2022-12-03T18:19:06.188Z,23.90
2022-12-03T18:20:01.449Z,24.60
2022-12-03T18:21:01.288Z,25.30
2022-12-03T18:22:01.311Z,24.70
2022-12-03T18:23:01.284Z,23.80
2022-12-03T18:24:01.279Z,25.50
2022-12-03T18:25:01.258Z,25.40
2022-12-03T18:26:01.240Z,24.80
2022-12-03T18:27:01.209Z,24.00
2022-12-03T18:28:01.228Z,25.60
2022-12-03T18:29:01.212Z,26.10
2022-12-03T18:30:01.169Z,25.60
2022-12-03T18:31:01.225Z,26.00
2022-12-03T18:32:01.196Z,23.80
2022-12-03T18:33:01.143Z,24.40
2022-12-03T18:34:01.145Z,25.30
2022-12-03T18:35:01.106Z,25.90
2022-12-03T18:36:01.152Z,25.90
2022-12-03T18:37:01.082Z,25.80
2022-12-03T18:38:01.053Z,24.30
2022-12-03T18:39:01.074Z,25.40
2022-12-03T18:40:01.256Z,25.40
2022-12-03T18:41:01.027Z,25.20
2022-12-03T18:42:01.042Z,26.40
2022-12-03T18:43:01.018Z,24.40
2022-12-03T18:44:00.982Z,25.80
2022-12-03T18:45:00.969Z,25.00
2022-12-03T18:46:00.961Z,24.60
2022-12-03T18:47:01.022Z,26.10
2022-12-03T18:48:01.019Z,26.20
2022-12-03T18:49:00.923Z,25.70
2022-12-03T18:50:00.901Z,26.60
2022-12-03T18:51:00.893Z,25.40
2022-12-03T18:52:00.954Z,25.00
2022-12-03T18:53:00.880Z,25.70
2022-12-03T18:54:00.865Z,25.30
2022-12-03T18:55:00.878Z,23.40
2022-12-03T18:56:00.821Z,24.80
2022-12-03T18:57:00.814Z,24.90
2022-12-03T18:58:01.678Z,25.60
2022-12-03T18:59:00.794Z,25.50
2022-12-03T19:00:00.817Z,25.40
2022-12-03T19:01:00.827Z,25.40
2022-12-03T19:02:00.785Z,24.30
2022-12-03T19:03:03.555Z,23.70
2022-12-03T19:04:00.763Z,23.90
2022-12-03T19:05:00.717Z,23.90
2022-12-03T19:06:00.698Z,25.30
2022-12-03T19:07:00.685Z,25.50
2022-12-03T19:08:00.819Z,23.90
2022-12-03T19:09:00.681Z,24.40
2022-12-03T19:10:00.632Z,24.20
2022-12-03T19:11:00.619Z,25.30
2022-12-03T19:12:00.622Z,25.60
2022-12-03T19:13:00.607Z,25.80
2022-12-03T19:14:00.599Z,23.70
2022-12-03T19:15:00.561Z,24.90
2022-12-03T19:16:00.650Z,23.60
2022-12-03T19:17:00.571Z,24.80
2022-12-03T19:18:00.525Z,25.50
2022-12-03T19:19:00.529Z,25.10
2022-12-03T19:20:00.520Z,24.80
2022-12-03T19:21:00.492Z,25.20
2022-12-03T19:22:00.493Z,25.90
2022-12-03T19:23:00.489Z,25.00
2022-12-03T19:24:23.272Z,25.90
2022-12-03T19:25:00.500Z,25.80
2022-12-03T19:26:00.417Z,24.70
2022-12-03T19:27:00.402Z,25.70
2022-12-03T19:28:00.451Z,25.30
2022-12-03T19:29:00.385Z,24.90
2022-12-03T19:30:00.362Z,25.50
2022-12-03T19:31:00.512Z,25.90
2022-12-03T19:32:00.482Z,25.30
2022-12-03T19:33:00.323Z,25.60
2022-12-03T19:34:00.325Z,26.40
2022-12-03T19:35:00.315Z,24.70
2022-12-03T19:36:00.329Z,24.30
2022-12-03T19:37:00.277Z,24.00
2022-12-03T19:38:00.256Z,24.70
2022-12-03T19:39:00.266Z,24.90
2022-12-03T19:40:00.266Z,25.60
2022-12-03T19:41:00.274Z,25.00
2022-12-03T19:42:00.217Z,25.50
2022-12-03T19:43:00.195Z,24.40
2022-12-03T19:44:00.194Z,25.80
2022-12-03T19:45:00.304Z,24.90
2022-12-03T19:46:00.191Z,25.30
2022-12-03T19:47:00.177Z,25.40
2022-12-03T19:48:00.116Z,26.40
2022-12-03T19:49:00.115Z,24.80
2022-12-03T19:50:00.130Z,24.20
2022-12-03T19:51:26.244Z,24.40
2022-12-03T19:52:00.072Z,24.40
2022-12-03T19:53:00.123Z,24.80
2022-12-03T19:54:00.047Z,25.90
2022-12-03T19:55:00.037Z,25.10
2022-12-03T19:56:00.026Z,23.80
2022-12-03T19:56:59.995Z,25.60
2022-12-03T19:57:59.982Z,25.60
2022-12-03T19:58:59.984Z,25.50
2022-12-03T19:59:59.967Z,25.00
2022-12-03T20:00:59.994Z,25.30
2022-12-03T20:02:00.039Z,25.80
2022-12-03T20:03:00.004Z,25.00
2022-12-03T20:03:59.928Z,25.00
2022-12-03T20:04:59.986Z,26.60
2022-12-03T20:05:59.899Z,24.80
2022-12-03T20:06:59.861Z,25.80
2022-12-03T20:08:00.005Z,26.00
2022-12-03T20:08:59.860Z,25.20
2022-12-03T20:09:59.962Z,26.00
2022-12-03T20:10:59.880Z,25.40
2022-12-03T20:11:59.819Z,25.10
2022-12-03T20:12:59.795Z,23.90
2022-12-03T20:13:59.763Z,24.60
2022-12-03T20:14:59.763Z,25.90
2022-12-03T20:15:59.787Z,24.40
2022-12-03T20:16:59.845Z,26.70
2022-12-03T20:17:59.717Z,26.20
2022-12-03T20:18:59.728Z,26.20
2022-12-03T20:19:59.678Z,24.80
2022-12-03T20:20:59.691Z,25.90
2022-12-03T20:22:02.710Z,26.60
2022-12-03T20:22:59.656Z,26.80
2022-12-03T20:23:59.629Z,27.30
2022-12-03T20:24:59.623Z,27.10
2022-12-03T20:25:59.610Z,25.60
2022-12-03T20:26:59.636Z,27.00
2022-12-03T20:27:59.789Z,26.50
2022-12-03T20:28:59.583Z,27.60
2022-12-03T20:29:59.547Z,27.60
2022-12-03T20:30:59.556Z,25.80
2022-12-03T20:31:59.606Z,26.00
2022-12-03T20:32:59.523Z,26.00
2022-12-03T20:33:59.514Z,26.10
2022-12-03T20:34:59.489Z,26.10
2022-12-03T20:35:59.490Z,24.70
2022-12-03T20:36:59.483Z,24.60
2022-12-03T20:37:59.457Z,26.10
2022-12-03T20:38:59.435Z,26.20
2022-12-03T20:39:59.433Z,27.00
2022-12-03T20:40:59.426Z,26.90
2022-12-03T20:41:59.384Z,27.20
2022-12-03T20:42:59.394Z,27.00
2022-12-03T20:43:59.362Z,26.40
2022-12-03T20:44:59.348Z,25.20
2022-12-03T20:46:02.708Z,26.40
2022-12-03T20:46:59.330Z,26.00
2022-12-03T20:47:59.309Z,25.20
2022-12-03T20:48:59.303Z,26.40
2022-12-03T20:49:59.283Z,25.80
2022-12-03T20:50:59.353Z,25.60
2022-12-03T20:52:02.829Z,23.60
2022-12-03T20:53:23.325Z,27.60
2022-12-03T20:53:59.246Z,25.80
2022-12-03T20:54:59.224Z,25.80
2022-12-03T20:55:59.231Z,25.80
2022-12-03T20:56:59.236Z,25.90
2022-12-03T20:57:59.188Z,27.90
2022-12-03T20:58:59.201Z,26.90
2022-12-03T20:59:59.158Z,27.10
2022-12-03T21:00:59.167Z,26.80
2022-12-03T21:01:59.259Z,25.90
2022-12-03T21:02:59.168Z,25.60
2022-12-03T21:03:59.112Z,25.60
2022-12-03T21:04:59.117Z,26.90
2022-12-03T21:05:59.089Z,25.60
2022-12-03T21:06:59.064Z,26.40
2022-12-03T21:07:59.132Z,27.60
2022-12-03T21:08:59.063Z,27.10
2022-12-03T21:09:59.016Z,26.70
2022-12-03T21:10:59.020Z,27.80
2022-12-03T21:11:59.005Z,27.20
2022-12-03T21:12:58.971Z,26.50
2022-12-03T21:13:58.991Z,27.30
2022-12-03T21:14:58.965Z,26.30
2022-12-03T21:15:58.963Z,27.40
2022-12-03T21:17:08.353Z,28.40
2022-12-03T21:17:58.960Z,27.10
2022-12-03T21:18:58.912Z,29.40
2022-12-03T21:19:58.887Z,28.40
2022-12-03T21:20:58.885Z,29.60
2022-12-03T21:21:58.881Z,27.60
2022-12-03T21:22:58.837Z,28.30
2022-12-03T21:23:58.819Z,26.20
2022-12-03T21:24:58.829Z,27.60
2022-12-03T21:25:58.801Z,28.40
2022-12-03T21:26:58.786Z,28.90
2022-12-03T21:27:58.792Z,27.80
2022-12-03T21:28:58.770Z,27.70
2022-12-03T21:29:58.761Z,28.40
2022-12-03T21:30:58.839Z,28.30
2022-12-03T21:31:58.728Z,27.30
2022-12-03T21:32:58.724Z,27.40
2022-12-03T21:33:58.698Z,28.70
2022-12-03T21:34:58.705Z,27.60
2022-12-03T21:35:58.679Z,28.90
2022-12-03T21:36:58.662Z,30.10
2022-12-03T21:37:58.639Z,28.40
2022-12-03T21:38:58.625Z,26.70
2022-12-03T21:39:58.610Z,28.90
2022-12-03T21:40:58.613Z,28.40
2022-12-03T21:42:33.861Z,29.00
2022-12-03T21:42:58.609Z,27.20
2022-12-03T21:43:58.581Z,28.00
2022-12-03T21:44:58.599Z,28.20
2022-12-03T21:45:58.553Z,26.90
2022-12-03T21:47:10.204Z,28.50
2022-12-03T21:47:58.566Z,27.30
2022-12-03T21:48:58.520Z,28.20
2022-12-03T21:49:58.496Z,29.70
2022-12-03T21:50:58.493Z,29.40
2022-12-03T21:51:58.485Z,28.60
2022-12-03T21:52:58.458Z,30.00
2022-12-03T21:53:58.425Z,28.10
2022-12-03T21:54:58.427Z,28.10
2022-12-03T21:55:58.399Z,29.20
2022-12-03T21:56:58.398Z,28.80
2022-12-03T21:57:58.364Z,28.20
2022-12-03T21:58:58.354Z,27.80
2022-12-03T21:59:58.343Z,28.20
2022-12-03T22:00:58.350Z,27.60
2022-12-03T22:01:58.430Z,27.90
2022-12-03T22:02:58.368Z,27.10
2022-12-03T22:03:58.281Z,27.10
2022-12-03T22:04:58.281Z,27.40
2022-12-03T22:05:58.262Z,28.40
2022-12-03T22:06:58.279Z,28.60
2022-12-03T22:07:58.342Z,29.50
2022-12-03T22:08:58.234Z,29.80
2022-12-03T22:09:58.247Z,28.90
2022-12-03T22:10:58.207Z,28.60
2022-12-03T22:11:58.194Z,28.10
2022-12-03T22:12:58.184Z,28.00
2022-12-03T22:13:58.165Z,27.80
2022-12-03T22:14:58.161Z,28.50
2022-12-03T22:15:58.222Z,29.10
2022-12-03T22:16:58.197Z,28.80
2022-12-03T22:17:58.108Z,28.20
2022-12-03T22:18:58.099Z,28.00
2022-12-03T22:19:58.081Z,28.90
2022-12-03T22:20:58.073Z,28.60
2022-12-03T22:21:58.051Z,27.80
2022-12-03T22:22:58.035Z,29.40
2022-12-03T22:23:58.028Z,28.70
2022-12-03T22:24:58.026Z,27.90
2022-12-03T22:25:57.993Z,28.70
2022-12-03T22:26:58.024Z,28.40
2022-12-03T22:27:58.001Z,26.90
2022-12-03T22:28:57.958Z,27.50
2022-12-03T22:29:57.946Z,29.10
2022-12-03T22:30:58.044Z,28.20
2022-12-03T22:31:57.942Z,28.00
2022-12-03T22:32:57.902Z,29.10
2022-12-03T22:33:57.894Z,28.20
2022-12-03T22:34:57.928Z,30.00
2022-12-03T22:35:57.875Z,30.80
2022-12-03T22:36:57.880Z,28.80
2022-12-03T22:37:57.863Z,28.40
2022-12-03T22:38:57.827Z,29.70
2022-12-03T22:39:58.102Z,28.30
2022-12-03T22:40:57.817Z,28.00
2022-12-03T22:41:57.799Z,29.80
2022-12-03T22:42:57.774Z,27.60
2022-12-03T22:43:57.813Z,29.00
2022-12-03T22:44:57.770Z,29.40
2022-12-03T22:45:57.813Z,28.90
2022-12-03T22:46:57.731Z,29.40
2022-12-03T22:47:57.724Z,28.90
2022-12-03T22:49:00.593Z,28.10
2022-12-03T22:49:57.859Z,27.40
2022-12-03T22:50:57.689Z,28.50
2022-12-03T22:51:57.693Z,28.80
2022-12-03T22:52:57.641Z,28.50
2022-12-03T22:53:57.628Z,28.40
2022-12-03T22:54:57.647Z,28.40
2022-12-03T22:55:57.620Z,30.10
2022-12-03T22:56:57.595Z,28.90
2022-12-03T22:57:57.581Z,30.70
2022-12-03T22:58:57.569Z,28.90
2022-12-03T22:59:57.720Z,29.70
2022-12-03T23:01:02.643Z,28.10
2022-12-03T23:01:57.527Z,28.50
2022-12-03T23:02:57.584Z,28.50
2022-12-03T23:03:57.550Z,29.10
2022-12-03T23:04:57.485Z,29.10
2022-12-03T23:05:57.494Z,28.30
2022-12-03T23:06:57.458Z,28.10